aviador You're here:

K2C8 Decoded Metar

in
Report Time2017-11-23 20:15:00
UTC Time2017-11-23 20:24:48
Flight Rules ifr IFR
Wind160° at 16 kt
W.Rank160° ranks 7
Current wind is above 160° avg. (8.2)
Visibility9999 m
Phenomena:N/A
Clouds:Overcast 007 Hf
Expected CloudBase > 400 ft AGL from Temp-Dew spread
Ceiling700 ft
Temp00°C
Dew Point-1°C (93% RH)
AAT-7.9°C
QNH1002 hPa
Raw Report
K2C8 232015Z AUTO 16016KT 7SM OVC007 M00/M01 A2959 RMK AO2=

Extra information for K2C8:More info

Social comments